Time;durP1;ratioP1;P1;durP2;ratioP2;P2;SDS_P1;SDS_P2;PMS_P1;PMS_P2;Temp;Humidity;BMP_temperature;BMP_pressure;BME280_temperature;BME280_humidity;BME280_pressure;Samples;Min_cycle;Max_cycle;Signal;HPM_P1;HPM_P2
2024/01/13 00:02:12;;;;;;;22.17;14.57;;;1.90;99.90;;;;;;5003978;28;20230;-59
2024/01/13 00:04:39;;;;;;;24.43;14.87;;;1.80;99.90;;;;;;5002699;28;20242;-59
2024/01/13 00:07:06;;;;;;;25.07;15.77;;;1.70;99.90;;;;;;5004577;28;20238;-59
2024/01/13 00:09:32;;;;;;;26.40;16.30;;;1.70;99.90;;;;;;5006188;28;20774;-59
2024/01/13 00:11:59;;;;;;;24.67;15.47;;;1.70;99.90;;;;;;5005129;28;20680;-60
2024/01/13 00:14:26;;;;;;;26.83;16.27;;;1.70;99.90;;;;;;5002626;28;20218;-60
2024/01/13 00:16:52;;;;;;;27.40;15.27;;;1.70;99.90;;;;;;5002745;28;20207;-60
2024/01/13 00:19:20;;;;;;;22.53;14.07;;;1.70;99.90;;;;;;4994940;28;20233;-60
2024/01/13 00:21:47;;;;;;;26.23;14.60;;;1.70;99.90;;;;;;5002599;28;20207;-59
2024/01/13 00:24:14;;;;;;;24.30;14.33;;;1.60;99.90;;;;;;5005201;28;20284;-60
2024/01/13 00:26:41;;;;;;;21.70;13.23;;;1.60;99.90;;;;;;5005827;28;20588;-62
2024/01/13 00:29:08;;;;;;;24.87;14.17;;;1.80;99.90;;;;;;5004200;28;20241;-60
2024/01/13 00:31:35;;;;;;;21.70;14.83;;;1.70;99.90;;;;;;5002454;28;20293;-60
2024/01/13 00:34:02;;;;;;;27.07;14.67;;;1.70;99.90;;;;;;5003389;28;20231;-60
2024/01/13 00:36:30;;;;;;;21.80;13.27;;;1.80;99.90;;;;;;5005719;28;20836;-61
2024/01/13 00:38:57;;;;;;;25.60;14.87;;;1.80;99.90;;;;;;5005419;28;20712;-60
2024/01/13 00:41:23;;;;;;;24.87;14.67;;;1.70;99.90;;;;;;5002532;28;20486;-60
2024/01/13 00:43:50;;;;;;;25.90;15.33;;;1.60;99.90;;;;;;5002129;28;20223;-60
2024/01/13 00:46:17;;;;;;;24.30;14.70;;;1.60;99.90;;;;;;5010466;28;20204;-60
2024/01/13 00:48:43;;;;;;;24.10;14.93;;;1.60;99.90;;;;;;5002109;28;20227;-60
2024/01/13 00:51:11;;;;;;;27.43;15.53;;;1.30;99.90;;;;;;5004287;28;20636;-60
2024/01/13 00:53:39;;;;;;;27.03;15.03;;;1.30;99.90;;;;;;5005274;28;20230;-60
2024/01/13 00:56:07;;;;;;;27.50;15.87;;;1.30;99.90;;;;;;5003688;28;20214;-60
2024/01/13 00:58:34;;;;;;;25.23;15.63;;;1.20;99.90;;;;;;5001901;28;20276;-60
2024/01/13 01:01:02;;;;;;;22.43;14.03;;;1.20;99.90;;;;;;5002717;28;20215;-60
2024/01/13 01:03:29;;;;;;;26.83;15.80;;;1.20;99.90;;;;;;5004802;28;20251;-60
2024/01/13 01:05:58;;;;;;;29.57;16.03;;;1.40;99.90;;;;;;5005177;28;20234;-60
2024/01/13 01:08:25;;;;;;;27.73;17.00;;;1.30;99.90;;;;;;5002204;28;20326;-60
2024/01/13 01:10:53;;;;;;;26.83;16.47;;;1.40;99.90;;;;;;5001857;28;20203;-60
2024/01/13 01:13:20;;;;;;;28.50;17.03;;;1.50;99.90;;;;;;5001737;28;20196;-60
2024/01/13 01:15:46;;;;;;;32.83;17.53;;;1.50;99.90;;;;;;5001287;28;20207;-60
2024/01/13 01:18:13;;;;;;;32.57;18.07;;;1.60;99.90;;;;;;5004145;28;20649;-60
2024/01/13 01:20:40;;;;;;;33.77;18.70;;;1.60;99.90;;;;;;5005237;28;20203;-60
2024/01/13 01:23:06;;;;;;;30.27;16.03;;;1.70;99.90;;;;;;5003155;28;20226;-60
2024/01/13 01:25:33;;;;;;;32.83;18.23;;;1.60;99.90;;;;;;5001290;28;20211;-60
2024/01/13 01:28:01;;;;;;;32.23;18.13;;;1.20;99.90;;;;;;5002037;28;20215;-60
2024/01/13 01:30:28;;;;;;;32.97;18.60;;;1.10;99.90;;;;;;5004695;28;20297;-60
2024/01/13 01:32:54;;;;;;;32.90;17.77;;;1.20;99.90;;;;;;5004955;28;20207;-60
2024/01/13 01:35:21;;;;;;;31.57;18.33;;;0.90;99.90;;;;;;4993167;28;20222;-60
2024/01/13 01:37:48;;;;;;;35.50;18.67;;;0.90;99.90;;;;;;5001404;28;20294;-60
2024/01/13 01:40:16;;;;;;;31.63;16.57;;;1.00;99.90;;;;;;5003670;28;20235;-60
2024/01/13 01:42:43;;;;;;;34.63;19.30;;;1.00;99.90;;;;;;5004436;28;20215;-60
2024/01/13 01:45:11;;;;;;;35.63;18.93;;;1.00;99.90;;;;;;5002366;28;20276;-60
2024/01/13 01:47:40;;;;;;;29.97;17.83;;;1.10;99.90;;;;;;5001405;28;20204;-60
2024/01/13 01:50:09;;;;;;;34.00;18.67;;;1.10;99.90;;;;;;5002400;28;20281;-60
2024/01/13 01:52:36;;;;;;;34.97;18.40;;;1.20;99.90;;;;;;5004449;28;20301;-61
2024/01/13 01:55:04;;;;;;;35.87;17.33;;;1.20;99.90;;;;;;5003032;28;20219;-59
2024/01/13 01:57:31;;;;;;;33.20;18.53;;;1.20;99.90;;;;;;5000673;28;20218;-60
2024/01/13 01:59:59;;;;;;;37.57;17.67;;;1.20;99.90;;;;;;5001023;28;20231;-60
2024/01/13 02:02:27;;;;;;;37.20;19.43;;;1.10;99.90;;;;;;5004207;28;20207;-60
2024/01/13 02:04:55;;;;;;;37.40;19.80;;;1.20;99.90;;;;;;5003903;28;20704;-60
2024/01/13 02:07:21;;;;;;;35.67;20.00;;;1.30;99.90;;;;;;4993625;28;20306;-60
2024/01/13 02:09:48;;;;;;;34.87;19.30;;;1.40;99.90;;;;;;5000474;28;20232;-60
2024/01/13 02:12:15;;;;;;;35.33;19.87;;;1.40;99.90;;;;;;5003373;28;20211;-60
2024/01/13 02:14:42;;;;;;;53.83;30.67;;;1.20;99.90;;;;;;5003844;28;20203;-60
2024/01/13 02:17:09;;;;;;;39.90;22.90;;;1.20;99.90;;;;;;5002230;28;20214;-60
2024/01/13 02:19:37;;;;;;;36.53;19.93;;;1.20;99.90;;;;;;5000595;28;20235;-60
2024/01/13 02:22:06;;;;;;;38.37;20.33;;;1.30;99.90;;;;;;5001315;28;20674;-60
2024/01/13 02:24:32;;;;;;;34.23;18.73;;;1.30;99.90;;;;;;5003450;28;20223;-60
2024/01/13 02:26:59;;;;;;;35.83;18.63;;;1.30;99.90;;;;;;5003625;28;20207;-60
2024/01/13 02:29:26;;;;;;;33.40;18.40;;;1.30;99.90;;;;;;5000372;28;20234;-60
2024/01/13 02:31:52;;;;;;;30.97;18.10;;;1.20;99.90;;;;;;5000423;28;20262;-60
2024/01/13 02:34:19;;;;;;;29.40;16.07;;;1.30;99.90;;;;;;5003017;28;20238;-60
2024/01/13 02:36:45;;;;;;;26.47;15.63;;;1.20;99.90;;;;;;5003499;28;20207;-60
2024/01/13 02:39:13;;;;;;;29.10;16.23;;;0.80;99.90;;;;;;5001193;28;20588;-60
2024/01/13 02:41:42;;;;;;;31.77;17.20;;;0.70;99.90;;;;;;5000379;28;20203;-59
2024/01/13 02:44:08;;;;;;;32.33;17.57;;;0.70;99.90;;;;;;5001592;28;20227;-59
2024/01/13 02:46:35;;;;;;;29.63;17.70;;;0.90;99.90;;;;;;5003537;28;20207;-61
2024/01/13 02:49:03;;;;;;;28.80;17.77;;;1.00;99.90;;;;;;5002814;28;20269;-60
2024/01/13 02:51:29;;;;;;;27.80;16.33;;;1.20;99.90;;;;;;5000166;28;20587;-61
2024/01/13 02:53:56;;;;;;;31.20;17.80;;;1.20;99.90;;;;;;4999688;28;20215;-59
2024/01/13 02:56:24;;;;;;;28.53;16.97;;;1.20;99.90;;;;;;4991908;28;20592;-60
2024/01/13 02:58:51;;;;;;;29.70;17.27;;;1.20;99.90;;;;;;4999913;28;20334;-59
2024/01/13 03:01:18;;;;;;;28.23;17.00;;;1.10;99.90;;;;;;5002624;28;20251;-59
2024/01/13 03:03:45;;;;;;;31.17;16.47;;;1.10;99.90;;;;;;5003100;28;20273;-60
2024/01/13 03:06:12;;;;;;;29.80;17.13;;;1.10;99.90;;;;;;5001244;28;20202;-60
2024/01/13 03:08:39;;;;;;;30.87;17.07;;;1.20;99.90;;;;;;5000015;28;20713;-60
2024/01/13 03:11:06;;;;;;;29.47;17.63;;;1.30;99.90;;;;;;5001225;28;20211;-59
2024/01/13 03:13:34;;;;;;;29.83;16.60;;;1.40;99.90;;;;;;5003265;28;20566;-60
2024/01/13 03:16:00;;;;;;;31.17;17.40;;;1.50;99.90;;;;;;5003034;28;20211;-59
2024/01/13 03:18:28;;;;;;;26.70;15.87;;;1.50;99.90;;;;;;4999895;28;20242;-59
2024/01/13 03:20:54;;;;;;;29.07;16.90;;;1.40;99.90;;;;;;5000078;28;20296;-59
2024/01/13 03:23:21;;;;;;;29.63;17.37;;;1.50;99.90;;;;;;5003162;28;20637;-59
2024/01/13 03:25:48;;;;;;;29.87;16.97;;;1.60;99.90;;;;;;5003550;28;20238;-59
2024/01/13 03:28:15;;;;;;;29.30;16.43;;;1.60;99.90;;;;;;5004791;28;20207;-60
2024/01/13 03:30:43;;;;;;;26.97;15.20;;;1.50;99.90;;;;;;5003725;28;20673;-60
2024/01/13 03:33:09;;;;;;;28.57;16.30;;;1.40;99.90;;;;;;5005213;28;20215;-60
2024/01/13 03:35:36;;;;;;;28.07;15.23;;;1.20;99.90;;;;;;5006733;28;20214;-59
2024/01/13 03:38:03;;;;;;;28.07;15.30;;;1.10;99.90;;;;;;5006532;28;20203;-59
2024/01/13 03:40:29;;;;;;;28.63;16.20;;;1.00;99.90;;;;;;5003681;28;20222;-59
2024/01/13 03:42:56;;;;;;;27.67;16.13;;;1.00;99.90;;;;;;5003514;28;20235;-59
2024/01/13 03:45:23;;;;;;;27.03;15.20;;;1.00;99.90;;;;;;5006250;28;20250;-59
2024/01/13 03:47:51;;;;;;;30.53;15.00;;;0.90;99.90;;;;;;5006598;28;20217;-59
2024/01/13 03:50:17;;;;;;;29.87;15.90;;;0.80;99.90;;;;;;5004281;28;20305;-59
2024/01/13 03:52:44;;;;;;;31.17;16.40;;;0.80;99.90;;;;;;5003374;28;20215;-60
2024/01/13 03:55:11;;;;;;;35.00;17.50;;;0.80;99.90;;;;;;5004571;28;20211;-59
2024/01/13 03:57:38;;;;;;;28.27;16.50;;;0.80;99.90;;;;;;5007085;28;20211;-60
2024/01/13 04:00:06;;;;;;;27.90;15.53;;;0.80;99.90;;;;;;5005670;28;20652;-59
2024/01/13 04:02:33;;;;;;;30.07;17.10;;;0.80;99.90;;;;;;5003042;28;20285;-61
2024/01/13 04:05:01;;;;;;;30.13;16.93;;;0.80;99.90;;;;;;5002826;28;20655;-59
2024/01/13 04:07:28;;;;;;;31.43;17.60;;;0.90;99.90;;;;;;5006553;28;20214;-59
2024/01/13 04:09:54;;;;;;;34.47;17.97;;;0.90;99.90;;;;;;5006434;28;20231;-59
2024/01/13 04:12:21;;;;;;;31.97;17.90;;;0.90;99.90;;;;;;5003389;28;20212;-59
2024/01/13 04:14:48;;;;;;;34.90;19.13;;;1.00;99.90;;;;;;5002538;28;20729;-59
2024/01/13 04:17:15;;;;;;;31.53;16.37;;;0.90;99.90;;;;;;5004672;28;20212;-59
2024/01/13 04:19:41;;;;;;;30.17;17.53;;;0.90;99.90;;;;;;5006186;28;20226;-59
2024/01/13 04:22:09;;;;;;;30.30;17.20;;;1.00;99.90;;;;;;5004725;28;20210;-59
2024/01/13 04:24:36;;;;;;;34.53;17.87;;;1.10;99.90;;;;;;5002740;28;20223;-60
2024/01/13 04:27:03;;;;;;;31.43;17.37;;;1.10;99.90;;;;;;5002870;28;20215;-59
2024/01/13 04:29:29;;;;;;;32.43;18.10;;;1.10;99.90;;;;;;5005783;28;20584;-59
2024/01/13 04:31:56;;;;;;;31.67;16.60;;;1.10;99.90;;;;;;5006204;28;20234;-59
2024/01/13 04:34:23;;;;;;;29.63;17.17;;;1.00;99.90;;;;;;5002605;28;20199;-59
2024/01/13 04:36:50;;;;;;;31.57;17.57;;;1.00;99.90;;;;;;5002526;28;20270;-59
2024/01/13 04:39:18;;;;;;;37.17;18.93;;;1.00;99.90;;;;;;5003529;28;20274;-59
2024/01/13 04:41:44;;;;;;;31.10;17.20;;;1.10;99.90;;;;;;5005593;28;20680;-59
2024/01/13 04:44:11;;;;;;;33.67;17.67;;;1.10;99.90;;;;;;5003849;28;20211;-59
2024/01/13 04:46:38;;;;;;;27.90;15.63;;;1.20;99.90;;;;;;5002537;28;20211;-59
2024/01/13 04:49:04;;;;;;;27.50;15.63;;;1.30;99.90;;;;;;5002628;28;20235;-59
2024/01/13 04:51:31;;;;;;;24.97;15.53;;;1.20;99.90;;;;;;5005645;28;20254;-61
2024/01/13 04:53:58;;;;;;;31.43;17.63;;;1.00;99.90;;;;;;5005284;28;20638;-61
2024/01/13 04:56:26;;;;;;;29.70;16.17;;;0.90;99.90;;;;;;5002296;28;20569;-59
2024/01/13 04:58:52;;;;;;;28.83;17.33;;;0.90;99.90;;;;;;5001980;28;20725;-60
2024/01/13 05:01:19;;;;;;;31.43;16.43;;;0.90;99.90;;;;;;5004266;28;20204;-60
2024/01/13 05:03:46;;;;;;;30.27;15.97;;;0.80;99.90;;;;;;5005391;28;20266;-59
2024/01/13 05:06:15;;;;;;;29.77;16.03;;;0.80;99.90;;;;;;5003775;28;20289;-60
2024/01/13 05:08:41;;;;;;;30.50;16.70;;;0.70;99.90;;;;;;5002003;28;20223;-60
2024/01/13 05:11:08;;;;;;;31.70;17.00;;;0.80;99.90;;;;;;5002555;28;20207;-60
2024/01/13 05:13:36;;;;;;;31.03;16.10;;;0.70;99.90;;;;;;5005206;28;20203;-60
2024/01/13 05:16:03;;;;;;;28.70;15.90;;;0.60;99.90;;;;;;5004729;28;20664;-59
2024/01/13 05:18:30;;;;;;;30.50;16.40;;;0.60;99.90;;;;;;5001716;28;20224;-60
2024/01/13 05:20:56;;;;;;;29.87;16.70;;;0.60;99.90;;;;;;5001755;28;20204;-61
2024/01/13 05:23:23;;;;;;;32.93;18.57;;;0.70;99.90;;;;;;5004254;28;20273;-61
2024/01/13 05:25:50;;;;;;;33.73;18.80;;;0.60;99.90;;;;;;5004614;28;20241;-60
2024/01/13 05:28:16;;;;;;;31.63;17.87;;;0.70;99.90;;;;;;5002960;28;20207;-60
2024/01/13 05:30:44;;;;;;;33.93;19.13;;;0.70;99.90;;;;;;5001605;28;20222;-60
2024/01/13 05:33:11;;;;;;;34.53;19.80;;;0.60;99.90;;;;;;5002630;28;20212;-59
2024/01/13 05:35:37;;;;;;;31.73;18.33;;;0.60;99.90;;;;;;5004759;28;20195;-60
2024/01/13 05:38:04;;;;;;;32.20;17.87;;;0.70;99.90;;;;;;5004329;28;20214;-60
2024/01/13 05:40:31;;;;;;;31.57;17.60;;;0.80;99.90;;;;;;5001704;28;20208;-59
2024/01/13 05:42:57;;;;;;;35.47;18.70;;;0.90;99.90;;;;;;5001430;28;20200;-59
2024/01/13 05:45:24;;;;;;;35.17;19.13;;;0.90;99.90;;;;;;5003761;28;20222;-59
2024/01/13 05:47:52;;;;;;;30.07;17.63;;;0.90;99.90;;;;;;5004447;28;20563;-59
2024/01/13 05:50:19;;;;;;;36.53;19.77;;;1.00;99.90;;;;;;5001905;28;20227;-60
2024/01/13 05:52:46;;;;;;;30.37;17.27;;;1.00;99.90;;;;;;5000963;28;20561;-60
2024/01/13 05:55:12;;;;;;;35.00;17.80;;;1.00;99.90;;;;;;5002375;28;20732;-60
2024/01/13 05:57:39;;;;;;;30.87;17.40;;;1.10;99.90;;;;;;5004843;28;20724;-60
2024/01/13 06:00:09;;;;;;;34.67;18.87;;;1.10;99.90;;;;;;5004258;28;20223;-60
2024/01/13 06:02:36;;;;;;;31.43;16.93;;;1.20;99.90;;;;;;5001308;28;20222;-60
2024/01/13 06:05:05;;;;;;;31.17;17.87;;;1.20;99.90;;;;;;5000943;28;20322;-60
2024/01/13 06:07:31;;;;;;;29.33;16.93;;;1.30;99.90;;;;;;4993527;28;20239;-60
2024/01/13 06:09:58;;;;;;;29.67;15.97;;;1.30;99.90;;;;;;5001005;28;20285;-60
2024/01/13 06:12:26;;;;;;;33.07;17.43;;;1.30;99.90;;;;;;5004184;28;20595;-60
2024/01/13 06:14:53;;;;;;;30.17;17.03;;;1.30;99.90;;;;;;5004065;28;20657;-60
2024/01/13 06:17:20;;;;;;;29.33;16.67;;;1.40;99.90;;;;;;5002085;28;20629;-59
2024/01/13 06:19:46;;;;;;;31.73;17.13;;;1.40;99.90;;;;;;5000755;28;20307;-60
2024/01/13 06:22:14;;;;;;;33.43;17.97;;;1.30;99.90;;;;;;5002170;28;20200;-60
2024/01/13 06:24:41;;;;;;;30.30;16.77;;;1.30;99.90;;;;;;5003769;28;20665;-60
2024/01/13 06:27:08;;;;;;;29.03;16.10;;;1.10;99.90;;;;;;5003161;28;20202;-60
2024/01/13 06:29:35;;;;;;;30.00;16.53;;;0.50;99.90;;;;;;5000754;28;20262;-60
2024/01/13 06:32:02;;;;;;;35.33;17.00;;;0.10;99.90;;;;;;5000308;28;20597;-60
2024/01/13 06:34:29;;;;;;;28.07;15.23;;;0.00;99.90;;;;;;5003837;28;20586;-60
2024/01/13 06:36:56;;;;;;;30.33;16.87;;;-0.20;99.90;;;;;;5004082;28;20199;-59
2024/01/13 06:39:24;;;;;;;32.57;16.53;;;-0.40;99.90;;;;;;5001067;28;20231;-60
2024/01/13 06:41:50;;;;;;;30.30;17.07;;;-0.20;99.90;;;;;;5000412;28;20214;-60
2024/01/13 06:44:17;;;;;;;33.57;18.63;;;0.00;99.90;;;;;;5001673;28;20207;-60
2024/01/13 06:46:44;;;;;;;35.90;18.77;;;0.10;99.90;;;;;;5003306;28;20226;-60
2024/01/13 06:49:11;;;;;;;36.13;19.07;;;0.30;99.90;;;;;;5002265;28;20227;-60
2024/01/13 06:51:38;;;;;;;32.80;18.80;;;0.60;99.90;;;;;;5000296;28;20275;-60
2024/01/13 06:54:05;;;;;;;38.50;21.23;;;0.70;99.90;;;;;;4999992;28;20254;-60
2024/01/13 06:56:33;;;;;;;36.23;19.03;;;0.80;99.90;;;;;;5003790;28;20205;-60
2024/01/13 06:59:00;;;;;;;34.57;19.27;;;0.80;99.90;;;;;;5003299;28;20230;-60
2024/01/13 07:01:26;;;;;;;38.97;20.03;;;0.80;99.90;;;;;;4999655;28;20211;-60
2024/01/13 07:03:53;;;;;;;35.67;19.20;;;0.90;99.90;;;;;;4999741;28;20223;-59
2024/01/13 07:06:19;;;;;;;33.70;19.20;;;0.80;99.90;;;;;;5001966;28;20230;-59
2024/01/13 07:08:46;;;;;;;35.73;20.37;;;0.70;99.90;;;;;;5003544;28;20277;-59
2024/01/13 07:11:13;;;;;;;40.53;21.77;;;0.70;99.90;;;;;;5002400;28;20335;-59
2024/01/13 07:13:43;;;;;;;37.00;19.10;;;0.70;99.90;;;;;;4999879;28;20302;-60
2024/01/13 07:16:10;;;;;;;41.57;21.33;;;0.70;99.90;;;;;;4999968;28;20260;-63
2024/01/13 07:18:36;;;;;;;38.37;20.53;;;0.80;99.90;;;;;;5003223;28;20248;-59
2024/01/13 07:21:03;;;;;;;33.97;19.40;;;1.00;99.90;;;;;;5003526;28;20349;-60
2024/01/13 07:23:30;;;;;;;34.53;18.90;;;1.20;99.90;;;;;;4999831;28;20238;-59
2024/01/13 07:25:58;;;;;;;36.77;21.17;;;1.30;99.90;;;;;;4999681;28;20220;-59
2024/01/13 07:28:25;;;;;;;33.03;18.13;;;1.50;99.90;;;;;;5002566;28;20232;-60
2024/01/13 07:30:53;;;;;;;31.37;18.60;;;1.50;99.90;;;;;;5003069;28;20206;-59
2024/01/13 07:33:20;;;;;;;37.77;20.10;;;1.60;99.90;;;;;;5001197;28;20211;-59
2024/01/13 07:35:46;;;;;;;33.23;19.60;;;1.60;99.90;;;;;;4999655;28;20210;-59
2024/01/13 07:38:13;;;;;;;37.63;19.50;;;1.60;99.90;;;;;;5000658;28;20216;-59
2024/01/13 07:40:40;;;;;;;35.47;19.73;;;1.70;99.90;;;;;;5003080;28;20214;-59
2024/01/13 07:43:07;;;;;;;36.03;20.93;;;1.80;99.90;;;;;;5002952;28;20206;-59
2024/01/13 07:45:34;;;;;;;32.63;18.77;;;1.80;99.90;;;;;;4999339;28;20224;-59
2024/01/13 07:48:02;;;;;;;28.80;16.57;;;1.80;99.90;;;;;;4999795;28;20219;-59
2024/01/13 07:50:29;;;;;;;24.37;15.30;;;1.80;99.90;;;;;;5002510;28;20226;-59
2024/01/13 07:52:56;;;;;;;23.57;14.00;;;1.70;99.90;;;;;;5002934;28;20206;-59
2024/01/13 07:55:22;;;;;;;18.23;12.27;;;1.70;99.90;;;;;;5000486;28;20261;-59
2024/01/13 07:57:49;;;;;;;24.50;13.97;;;1.70;99.90;;;;;;5000067;28;20204;-59
2024/01/13 08:00:17;;;;;;;23.17;13.73;;;1.70;99.90;;;;;;5000899;28;20224;-60
2024/01/13 08:02:43;;;;;;;26.10;15.07;;;1.80;99.90;;;;;;5002929;28;20261;-60
2024/01/13 08:05:14;;;;;;;24.93;14.47;;;1.80;99.90;;;;;;5002349;28;20207;-60
2024/01/13 08:07:40;;;;;;;28.93;16.60;;;1.70;99.90;;;;;;4999702;28;20204;-60
2024/01/13 08:10:09;;;;;;;27.20;15.87;;;1.80;99.90;;;;;;4999342;28;20228;-60
2024/01/13 08:12:36;;;;;;;29.97;18.00;;;1.80;99.90;;;;;;5003445;28;20237;-60
2024/01/13 08:15:05;;;;;;;27.80;16.30;;;1.70;99.90;;;;;;5005806;28;20214;-60
2024/01/13 08:17:31;;;;;;;30.27;17.77;;;1.90;99.90;;;;;;5002768;28;20688;-60
2024/01/13 08:19:58;;;;;;;31.93;17.60;;;1.80;99.90;;;;;;5002871;28;20219;-62
2024/01/13 08:22:26;;;;;;;30.55;20.25;;;1.80;99.90;;;;;;5003993;28;20440;-61
2024/01/13 08:24:53;;;;;;;32.27;19.00;;;1.90;99.90;;;;;;5005974;28;20253;-61
2024/01/13 08:27:19;;;;;;;29.90;17.27;;;1.90;99.90;;;;;;5004129;28;20273;-63
2024/01/13 08:29:47;;;;;;;34.33;19.13;;;2.00;99.90;;;;;;5002572;28;20732;-63
2024/01/13 08:32:13;;;;;;;34.87;19.67;;;2.10;99.90;;;;;;5003418;28;20208;-64
2024/01/13 08:34:40;;;;;;;30.80;17.80;;;2.10;99.90;;;;;;5009655;28;20199;-62
2024/01/13 08:37:07;;;;;;;31.73;18.50;;;2.10;99.90;;;;;;5002394;28;20286;-62
2024/01/13 08:39:35;;;;;;;35.23;19.53;;;2.10;99.90;;;;;;4994294;28;20220;-61
2024/01/13 08:42:02;;;;;;;33.50;18.20;;;2.10;99.90;;;;;;5002899;28;20296;-62
2024/01/13 08:44:29;;;;;;;37.30;20.87;;;2.10;99.90;;;;;;5004904;28;20229;-61
2024/01/13 08:46:56;;;;;;;34.97;18.90;;;2.20;99.90;;;;;;5005701;28;20317;-62
2024/01/13 08:49:22;;;;;;;34.97;18.67;;;2.20;99.90;;;;;;5003208;28;20724;-62
2024/01/13 08:51:49;;;;;;;37.00;19.47;;;2.30;99.90;;;;;;5002050;28;20259;-61
2024/01/13 08:54:16;;;;;;;33.33;18.73;;;2.30;99.90;;;;;;5003064;28;20207;-62
2024/01/13 08:56:44;;;;;;;33.17;18.73;;;2.00;99.90;;;;;;5005280;28;20295;-62
2024/01/13 08:59:10;;;;;;;38.17;20.67;;;1.80;99.90;;;;;;5004891;28;20223;-61
2024/01/13 09:01:37;;;;;;;36.17;19.93;;;1.70;99.90;;;;;;5001941;28;20208;-61
2024/01/13 09:04:04;;;;;;;33.90;18.63;;;1.50;99.90;;;;;;5001831;28;20199;-61
2024/01/13 09:06:31;;;;;;;40.87;21.90;;;1.40;99.90;;;;;;5004562;28;20229;-61
2024/01/13 09:08:57;;;;;;;31.60;18.00;;;1.20;99.90;;;;;;5004944;28;20237;-62
2024/01/13 09:11:24;;;;;;;38.50;19.60;;;1.30;99.90;;;;;;5003027;28;20669;-62
2024/01/13 09:13:52;;;;;;;36.53;20.33;;;1.50;99.90;;;;;;5001371;28;20257;-62
2024/01/13 09:16:19;;;;;;;34.23;18.53;;;1.70;99.90;;;;;;5002976;28;20207;-62
2024/01/13 09:18:45;;;;;;;28.40;16.20;;;1.90;99.90;;;;;;5005439;28;20223;-62
2024/01/13 09:21:13;;;;;;;24.97;13.57;;;1.90;99.90;;;;;;5004353;28;20214;-62
2024/01/13 09:23:40;;;;;;;20.73;12.33;;;2.00;99.90;;;;;;5001462;28;20210;-62
2024/01/13 09:26:07;;;;;;;18.87;10.43;;;2.00;99.90;;;;;;5001057;28;20310;-62
2024/01/13 09:28:33;;;;;;;13.67;9.17;;;2.00;99.90;;;;;;5004618;28;20860;-62
2024/01/13 09:31:02;;;;;;;12.33;7.60;;;2.20;99.90;;;;;;5004925;28;20207;-62
2024/01/13 09:33:29;;;;;;;12.70;7.73;;;2.10;99.90;;;;;;5001827;28;20207;-62
2024/01/13 09:35:55;;;;;;;10.87;7.27;;;2.10;99.90;;;;;;5001351;28;20207;-64
2024/01/13 09:38:22;;;;;;;12.47;7.57;;;2.10;99.90;;;;;;5002745;28;20713;-62
2024/01/13 09:40:49;;;;;;;11.93;7.30;;;1.90;99.90;;;;;;5004703;28;20203;-62
2024/01/13 09:43:24;;;;;;;12.20;7.70;;;1.60;99.90;;;;;;5003478;28;20278;-62
2024/01/13 09:45:50;;;;;;;12.23;7.90;;;1.60;99.90;;;;;;5000618;28;20592;-62
2024/01/13 09:48:20;;;;;;;14.47;8.53;;;1.40;99.90;;;;;;5001516;28;20204;-62
2024/01/13 09:50:51;;;;;;;13.60;7.87;;;1.20;99.90;;;;;;5004947;28;20209;-62
2024/01/13 09:53:27;;;;;;;13.50;8.07;;;1.40;99.90;;;;;;5003500;28;20559;-62
2024/01/13 09:55:58;;;;;;;12.37;7.53;;;1.60;99.90;;;;;;5000920;28;20207;-62
2024/01/13 09:58:25;;;;;;;12.07;7.63;;;1.80;99.90;;;;;;5002592;28;20207;-62
2024/01/13 10:00:54;;;;;;;10.97;6.73;;;1.90;99.90;;;;;;5004218;28;20715;-65
2024/01/13 10:03:22;;;;;;;8.90;5.97;;;2.00;99.90;;;;;;5002468;28;20650;-66
2024/01/13 10:05:51;;;;;;;10.83;6.33;;;2.10;99.90;;;;;;5000601;28;20212;-65
2024/01/13 10:08:23;;;;;;;9.50;5.53;;;2.00;99.90;;;;;;5001479;28;20588;-65
2024/01/13 10:10:50;;;;;;;9.50;6.10;;;2.00;99.90;;;;;;5004280;28;20202;-64
2024/01/13 10:13:16;;;;;;;11.80;8.10;;;2.00;99.90;;;;;;5002988;28;20623;-66
2024/01/13 10:15:43;;;;;;;10.97;6.93;;;2.00;99.90;;;;;;5000477;28;20254;-65
2024/01/13 10:18:10;;;;;;;8.67;5.90;;;1.80;99.90;;;;;;5000592;28;20205;-64
2024/01/13 10:20:38;;;;;;;7.60;5.57;;;1.90;99.90;;;;;;5000322;28;20200;-66
2024/01/13 10:23:05;;;;;;;10.70;6.27;;;1.80;99.90;;;;;;5000439;28;20204;-64
2024/01/13 10:25:31;;;;;;;9.57;6.20;;;1.90;99.90;;;;;;5002704;28;20211;-64
2024/01/13 10:27:58;;;;;;;7.87;5.30;;;2.00;99.90;;;;;;5003714;28;20225;-64
2024/01/13 10:30:25;;;;;;;8.70;5.60;;;2.00;99.90;;;;;;5002089;28;20228;-64
2024/01/13 10:32:52;;;;;;;6.97;5.27;;;1.90;99.90;;;;;;5000378;28;20238;-64
2024/01/13 10:35:18;;;;;;;11.67;6.37;;;1.70;99.90;;;;;;5000971;28;20207;-66
2024/01/13 10:37:47;;;;;;;8.50;5.93;;;1.70;99.90;;;;;;5003090;28;20199;-64
2024/01/13 10:40:13;;;;;;;8.77;5.80;;;1.80;99.90;;;;;;5002931;28;20649;-64
2024/01/13 10:42:45;;;;;;;9.47;6.20;;;2.10;99.90;;;;;;5000211;28;20208;-63
2024/01/13 10:45:16;;;;;;;11.30;7.03;;;2.30;99.90;;;;;;5000110;28;20204;-64
2024/01/13 10:47:49;;;;;;;8.90;5.67;;;2.40;99.90;;;;;;5003621;28;20226;-63
2024/01/13 10:50:16;;;;;;;8.07;5.50;;;2.40;99.90;;;;;;5002460;28;20222;-64
2024/01/13 10:52:55;;;;;;;10.53;6.03;;;2.40;99.90;;;;;;5000029;28;20204;-64
2024/01/13 10:55:23;;;;;;;9.87;5.70;;;2.40;99.90;;;;;;5001161;28;20711;-64
2024/01/13 10:57:51;;;;;;;8.60;6.03;;;2.40;99.90;;;;;;5003632;28;20286;-64
2024/01/13 11:00:19;;;;;;;10.23;6.50;;;2.50;99.90;;;;;;5002541;28;20709;-63
2024/01/13 11:02:48;;;;;;;14.20;8.80;;;2.50;99.90;;;;;;4995927;28;20212;-63
2024/01/13 11:05:15;;;;;;;12.63;7.03;;;2.50;99.90;;;;;;4988616;28;20218;-64
2024/01/13 11:07:42;;;;;;;9.97;6.27;;;2.60;99.90;;;;;;4991553;28;20259;-64
2024/01/13 11:10:15;;;;;;;14.20;9.50;;;2.70;99.90;;;;;;4991672;28;20231;-61
2024/01/13 11:12:49;;;;;;;10.23;7.40;;;2.80;99.90;;;;;;4991232;28;20302;-64
2024/01/13 11:15:18;;;;;;;9.23;6.37;;;2.80;99.90;;;;;;4991228;28;20214;-66
2024/01/13 11:17:47;;;;;;;11.00;7.17;;;2.90;99.90;;;;;;4991207;28;20208;-64
2024/01/13 11:20:17;;;;;;;10.27;6.43;;;3.10;99.90;;;;;;4990495;28;20266;-63
2024/01/13 11:22:56;;;;;;;11.83;6.50;;;3.20;99.90;;;;;;4989980;28;20307;-63
2024/01/13 11:25:25;;;;;;;11.73;9.97;;;2.90;99.90;;;;;;4989429;28;20225;-64
2024/01/13 11:27:58;;;;;;;11.80;6.50;;;3.10;99.90;;;;;;4991863;28;20234;-64
2024/01/13 11:30:32;;;;;;;9.43;6.07;;;3.20;99.90;;;;;;4990889;28;20262;-64
2024/01/13 11:32:59;;;;;;;9.73;6.97;;;3.30;99.90;;;;;;4991442;28;20223;-64
2024/01/13 11:35:26;;;;;;;23.33;14.87;;;3.30;99.90;;;;;;4990940;28;20223;-65
2024/01/13 11:37:54;;;;;;;8.70;6.67;;;3.40;99.90;;;;;;4991435;28;20593;-64
2024/01/13 11:40:21;;;;;;;10.40;7.37;;;3.50;99.90;;;;;;4991367;28;20231;-65
2024/01/13 11:42:58;;;;;;;9.07;6.33;;;3.50;99.90;;;;;;4990999;28;20214;-63
2024/01/13 11:45:34;;;;;;;9.63;6.80;;;3.40;99.90;;;;;;4990730;28;20234;-63
2024/01/13 11:48:34;;;;;;;13.57;8.60;;;3.40;99.90;;;;;;4992417;28;20255;-65
2024/01/13 11:51:01;;;;;;;8.67;5.93;;;3.50;99.90;;;;;;4989940;28;20210;-66
2024/01/13 11:53:33;;;;;;;9.00;6.53;;;3.40;99.90;;;;;;4994642;28;20600;-64
2024/01/13 11:56:00;;;;;;;10.87;6.67;;;3.20;99.90;;;;;;5003206;28;20247;-62
2024/01/13 11:58:28;;;;;;;11.23;7.13;;;2.90;99.90;;;;;;4994637;28;20760;-63
2024/01/13 12:00:55;;;;;;;9.33;6.80;;;2.70;99.90;;;;;;4994508;28;20208;-65
2024/01/13 12:03:22;;;;;;;9.43;7.03;;;2.70;99.90;;;;;;4993149;28;20638;-63
2024/01/13 12:05:50;;;;;;;12.73;8.43;;;2.60;99.90;;;;;;4994228;28;20250;-63
2024/01/13 12:08:17;;;;;;;11.70;7.33;;;2.50;99.90;;;;;;4994742;28;20228;-62
2024/01/13 12:10:44;;;;;;;10.50;6.80;;;2.50;99.90;;;;;;4994466;28;20627;-64
2024/01/13 12:13:15;;;;;;;10.50;7.33;;;2.50;99.90;;;;;;4994805;28;20312;-68
2024/01/13 12:15:46;;;;;;;11.57;8.00;;;2.30;99.90;;;;;;4986753;28;20204;-62
2024/01/13 12:18:18;;;;;;;12.67;8.57;;;2.00;99.90;;;;;;4994510;28;20208;-63
2024/01/13 12:20:45;;;;;;;10.13;6.93;;;2.00;99.90;;;;;;4987276;28;20303;-59
2024/01/13 12:23:12;;;;;;;13.53;8.03;;;2.10;99.90;;;;;;4994738;28;20218;-60
2024/01/13 12:25:39;;;;;;;11.27;6.93;;;2.40;99.90;;;;;;4993930;28;20203;-58
2024/01/13 12:28:07;;;;;;;10.17;7.33;;;2.60;99.90;;;;;;4994385;28;20228;-58
2024/01/13 12:30:36;;;;;;;11.80;7.67;;;2.80;99.90;;;;;;4994090;28;20223;-58
2024/01/13 12:33:05;;;;;;;10.17;7.03;;;2.70;99.90;;;;;;4994104;28;20303;-58
2024/01/13 12:35:32;;;;;;;11.13;7.60;;;2.80;99.90;;;;;;4993996;28;20216;-58
2024/01/13 12:38:00;;;;;;;12.40;7.70;;;2.90;99.90;;;;;;4994374;28;20291;-58
2024/01/13 12:40:28;;;;;;;10.87;7.83;;;3.00;99.90;;;;;;4994053;28;20267;-58
2024/01/13 12:42:55;;;;;;;9.80;7.43;;;3.10;99.90;;;;;;4994347;28;20344;-63